createdAt,value
2024-01-08T00:02:17.175Z,99.90
2024-01-08T00:04:45.120Z,95.00
2024-01-08T00:07:12.959Z,99.90
2024-01-08T00:09:40.851Z,98.90
2024-01-08T00:12:09.120Z,99.90
2024-01-08T00:14:36.980Z,99.90
2024-01-08T00:17:06.504Z,99.90
2024-01-08T00:19:34.607Z,99.90
2024-01-08T00:22:02.810Z,91.00
2024-01-08T00:24:30.752Z,92.80
2024-01-08T00:26:58.713Z,99.90
2024-01-08T00:29:26.550Z,99.90
2024-01-08T00:31:54.590Z,99.90
2024-01-08T00:34:24.455Z,99.90
2024-01-08T00:36:52.329Z,99.90
2024-01-08T00:39:20.151Z,99.90
2024-01-08T00:41:48.048Z,99.90
2024-01-08T00:44:15.960Z,99.90
2024-01-08T00:46:43.832Z,99.90
2024-01-08T00:49:11.798Z,99.90
2024-01-08T00:51:41.329Z,99.90
2024-01-08T00:57:01.443Z,99.90
2024-01-08T00:59:29.350Z,99.90
2024-01-08T01:01:58.412Z,99.90
2024-01-08T01:04:27.761Z,99.90
2024-01-08T01:06:57.125Z,99.90
2024-01-08T01:09:24.937Z,99.90
2024-01-08T01:11:52.868Z,99.90
2024-01-08T01:14:20.865Z,99.90
2024-01-08T01:16:48.752Z,99.90
2024-01-08T01:19:18.239Z,99.90
2024-01-08T01:21:46.959Z,99.90
2024-01-08T01:24:16.201Z,99.90
2024-01-08T01:26:44.366Z,99.90
2024-01-08T01:29:12.506Z,99.90
2024-01-08T01:31:40.515Z,99.90
2024-01-08T01:34:11.066Z,99.90
2024-01-08T01:36:39.050Z,99.90
2024-01-08T01:39:07.044Z,99.90
2024-01-08T01:41:36.353Z,99.90
2024-01-08T01:44:04.386Z,99.90
2024-01-08T01:46:39.925Z,99.90
2024-01-08T01:49:10.233Z,99.90
2024-01-08T01:51:38.217Z,99.90
2024-01-08T01:54:06.167Z,99.90
2024-01-08T01:56:34.342Z,99.90
2024-01-08T01:59:05.879Z,99.90
2024-01-08T02:01:35.007Z,99.90
2024-01-08T02:04:04.299Z,99.90
2024-01-08T02:06:32.569Z,99.90
2024-01-08T02:09:00.409Z,99.90
2024-01-08T02:11:29.214Z,99.90
2024-01-08T02:13:57.541Z,99.90
2024-01-08T02:16:26.924Z,99.90
2024-01-08T02:18:54.982Z,99.90
2024-01-08T02:21:22.855Z,99.90
2024-01-08T02:23:52.320Z,99.90
2024-01-08T02:26:20.668Z,99.90
2024-01-08T02:28:48.634Z,99.90
2024-01-08T02:31:16.640Z,99.90
2024-01-08T02:33:44.974Z,99.90
2024-01-08T02:36:12.829Z,99.90
2024-01-08T02:38:40.752Z,99.90
2024-01-08T02:41:10.014Z,99.90
2024-01-08T02:43:37.921Z,99.90
2024-01-08T02:46:06.202Z,99.90
2024-01-08T02:48:34.266Z,99.90
2024-01-08T02:51:02.186Z,99.90
2024-01-08T02:53:30.158Z,99.90
2024-01-08T02:55:58.204Z,99.90
2024-01-08T02:58:27.385Z,99.90
2024-01-08T03:00:55.449Z,99.90
2024-01-08T03:03:23.443Z,99.90
2024-01-08T03:05:51.253Z,99.90
2024-01-08T03:08:19.339Z,99.90
2024-01-08T03:10:47.371Z,99.90
2024-01-08T03:13:15.160Z,99.90
2024-01-08T03:15:44.407Z,99.90
2024-01-08T03:18:12.451Z,99.90
2024-01-08T03:20:40.404Z,99.90
2024-01-08T03:23:10.371Z,99.90
2024-01-08T03:25:38.560Z,99.90
2024-01-08T03:28:06.820Z,99.90
2024-01-08T03:30:34.652Z,99.90
2024-01-08T03:33:04.145Z,99.90
2024-01-08T03:35:32.281Z,99.90
2024-01-08T03:38:00.160Z,99.90
2024-01-08T03:40:28.072Z,99.90
2024-01-08T03:42:55.884Z,99.90
2024-01-08T03:45:23.712Z,99.90
2024-01-08T03:47:51.648Z,99.90
2024-01-08T03:50:21.067Z,99.90
2024-01-08T03:52:48.963Z,99.90
2024-01-08T03:55:16.920Z,99.90
2024-01-08T03:57:44.966Z,99.90
2024-01-08T04:00:13.767Z,99.90
2024-01-08T04:02:42.443Z,99.90
2024-01-08T04:05:11.131Z,99.90
2024-01-08T04:07:40.394Z,99.90
2024-01-08T04:10:09.684Z,99.90
2024-01-08T04:12:37.559Z,99.90
2024-01-08T04:15:06.266Z,99.90
2024-01-08T04:17:34.184Z,99.90
2024-01-08T04:20:02.228Z,99.90
2024-01-08T04:22:30.149Z,99.90
2024-01-08T04:24:59.310Z,99.90
2024-01-08T04:27:27.418Z,99.90
2024-01-08T04:29:55.264Z,99.90
2024-01-08T04:32:23.197Z,99.90
2024-01-08T04:34:51.228Z,1.00
2024-01-08T04:37:19.092Z,1.00
2024-01-08T04:39:47.095Z,1.00
2024-01-08T04:42:16.405Z,1.00
2024-01-08T04:44:44.296Z,1.00
2024-01-08T04:47:12.288Z,1.00
2024-01-08T04:49:40.747Z,1.00
2024-01-08T04:52:08.938Z,1.00
2024-01-08T04:54:36.796Z,1.00
2024-01-08T04:57:05.171Z,1.00
2024-01-08T04:59:34.450Z,99.90
2024-01-08T05:02:02.540Z,99.90
2024-01-08T05:04:30.417Z,99.90
2024-01-08T05:06:58.298Z,99.90
2024-01-08T05:09:26.124Z,99.90
2024-01-08T05:11:54.000Z,99.90
2024-01-08T05:14:21.816Z,99.90
2024-01-08T05:16:51.591Z,99.90
2024-01-08T05:19:19.742Z,99.90
2024-01-08T05:21:47.993Z,99.90
2024-01-08T05:24:15.827Z,99.90
2024-01-08T05:26:43.824Z,99.90
2024-01-08T05:29:11.731Z,99.90
2024-01-08T05:31:39.598Z,99.90
2024-01-08T05:34:08.970Z,99.90
2024-01-08T05:36:36.770Z,99.90
2024-01-08T05:39:05.075Z,99.90
2024-01-08T05:41:32.942Z,99.90
2024-01-08T05:44:00.825Z,99.90
2024-01-08T05:46:28.875Z,99.90
2024-01-08T05:48:56.952Z,99.90
2024-01-08T05:51:29.482Z,99.90
2024-01-08T05:53:57.450Z,99.90
2024-01-08T05:56:25.326Z,99.90
2024-01-08T05:58:53.303Z,99.90
2024-01-08T06:01:22.196Z,99.90
2024-01-08T06:03:50.116Z,99.90
2024-01-08T06:06:18.191Z,99.90
2024-01-08T06:08:47.472Z,99.90
2024-01-08T06:11:15.402Z,99.90
2024-01-08T06:13:43.280Z,99.90
2024-01-08T06:16:16.640Z,99.90
2024-01-08T06:18:44.589Z,99.90
2024-01-08T06:21:12.487Z,99.90
2024-01-08T06:23:40.561Z,99.90
2024-01-08T06:26:10.256Z,99.90
2024-01-08T06:28:38.107Z,99.90
2024-01-08T06:31:10.273Z,99.90
2024-01-08T06:33:39.748Z,99.90
2024-01-08T06:36:08.040Z,99.90
2024-01-08T06:38:35.905Z,99.90
2024-01-08T06:41:03.810Z,99.90
2024-01-08T06:43:33.009Z,99.90
2024-01-08T06:46:00.931Z,99.90
2024-01-08T06:48:29.136Z,99.90
2024-01-08T06:50:57.024Z,99.90
2024-01-08T06:53:24.920Z,99.90
2024-01-08T06:55:52.870Z,99.90
2024-01-08T06:58:20.886Z,99.90
2024-01-08T07:00:50.139Z,99.90
2024-01-08T07:03:18.460Z,99.90
2024-01-08T07:05:48.642Z,99.90
2024-01-08T07:08:17.153Z,99.90
2024-01-08T07:10:45.206Z,99.90
2024-01-08T07:13:13.216Z,99.90
2024-01-08T07:15:42.810Z,99.90
2024-01-08T07:18:12.404Z,99.90
2024-01-08T07:20:41.122Z,99.90
2024-01-08T07:23:10.754Z,99.90
2024-01-08T07:25:39.534Z,99.90
2024-01-08T07:28:08.744Z,99.90
2024-01-08T07:30:37.692Z,99.90
2024-01-08T07:33:06.380Z,99.90
2024-01-08T07:35:35.728Z,99.90
2024-01-08T07:38:03.675Z,99.90
2024-01-08T07:40:31.515Z,99.90
2024-01-08T07:43:00.405Z,99.90
2024-01-08T07:45:29.514Z,99.90
2024-01-08T07:47:58.741Z,99.90
2024-01-08T07:50:26.930Z,99.90
2024-01-08T07:52:56.308Z,99.90
2024-01-08T07:55:24.955Z,99.90
2024-01-08T07:57:52.828Z,99.90
2024-01-08T08:00:23.150Z,82.00
2024-01-08T08:02:51.508Z,94.30
2024-01-08T08:05:20.324Z,96.60
2024-01-08T08:07:48.517Z,75.00
2024-01-08T08:10:19.107Z,65.30
2024-01-08T08:12:47.828Z,72.30
2024-01-08T08:15:15.946Z,91.90
2024-01-08T08:17:43.950Z,92.60
2024-01-08T08:20:12.941Z,92.20
2024-01-08T08:22:44.004Z,90.20
2024-01-08T08:25:12.970Z,55.40
2024-01-08T08:27:42.171Z,58.20
2024-01-08T08:30:12.557Z,91.20
2024-01-08T08:32:41.727Z,60.70
2024-01-08T08:35:10.955Z,53.20
2024-01-08T08:37:49.022Z,66.60
2024-01-08T08:40:21.506Z,65.50
2024-01-08T08:42:51.287Z,30.00
2024-01-08T08:45:19.677Z,43.40
2024-01-08T08:47:48.226Z,27.20
2024-01-08T08:50:16.676Z,42.10
2024-01-08T08:52:46.158Z,28.10
2024-01-08T08:55:14.648Z,7.70
2024-01-08T08:57:43.029Z,14.50
2024-01-08T09:00:15.810Z,10.10
2024-01-08T09:02:46.328Z,1.00
2024-01-08T09:07:42.856Z,1.00
2024-01-08T09:10:10.995Z,1.00
2024-01-08T09:12:38.835Z,1.00
2024-01-08T09:15:07.890Z,1.00
2024-01-08T09:17:37.201Z,1.00
2024-01-08T09:20:10.154Z,1.00
2024-01-08T09:22:38.134Z,1.00
2024-01-08T09:25:08.041Z,1.00
2024-01-08T09:27:38.226Z,1.00
2024-01-08T09:30:07.376Z,1.00
2024-01-08T09:32:35.419Z,1.00
2024-01-08T09:35:04.983Z,1.00
2024-01-08T09:37:32.875Z,1.00
2024-01-08T09:40:01.583Z,1.00
2024-01-08T09:42:29.991Z,1.00
2024-01-08T09:44:57.868Z,1.00
2024-01-08T09:47:26.721Z,1.00
2024-01-08T09:49:55.300Z,1.00
2024-01-08T09:52:30.153Z,1.00
2024-01-08T09:55:07.383Z,1.00
2024-01-08T09:57:35.325Z,1.00
2024-01-08T10:00:04.498Z,1.00
2024-01-08T10:02:32.448Z,1.00
2024-01-08T10:05:00.607Z,1.00
2024-01-08T10:07:34.496Z,1.00
2024-01-08T10:10:02.589Z,1.00
2024-01-08T10:12:33.143Z,1.00
2024-01-08T10:15:01.038Z,1.00
2024-01-08T10:17:28.998Z,1.00
2024-01-08T10:20:08.317Z,1.00
2024-01-08T10:22:38.745Z,1.00
2024-01-08T10:25:07.748Z,1.00
2024-01-08T10:27:36.093Z,1.00
2024-01-08T10:30:05.220Z,1.00
2024-01-08T10:32:33.312Z,1.00
2024-01-08T10:35:04.090Z,1.00
2024-01-08T10:37:32.185Z,1.00
2024-01-08T10:40:04.282Z,1.00
2024-01-08T10:42:32.239Z,1.00
2024-01-08T10:45:00.046Z,1.00
2024-01-08T10:47:30.209Z,1.00
2024-01-08T10:49:59.855Z,1.00
2024-01-08T10:52:29.651Z,1.00
2024-01-08T10:54:59.056Z,1.00
2024-01-08T10:57:37.780Z,1.00
2024-01-08T11:00:10.817Z,1.00
2024-01-08T11:02:39.996Z,1.00
2024-01-08T11:05:09.808Z,1.00
2024-01-08T11:07:39.764Z,1.00
2024-01-08T11:10:10.398Z,1.00
2024-01-08T11:12:41.644Z,1.00
2024-01-08T11:15:12.286Z,1.00
2024-01-08T11:17:40.582Z,1.00
2024-01-08T11:20:41.525Z,1.00
2024-01-08T11:23:41.696Z,1.00
2024-01-08T11:26:12.243Z,1.00
2024-01-08T11:28:42.847Z,1.00
2024-01-08T11:31:47.493Z,1.00
2024-01-08T11:34:44.590Z,1.00
2024-01-08T11:37:31.412Z,1.00
2024-01-08T11:39:59.956Z,1.00
2024-01-08T11:42:27.926Z,1.00
2024-01-08T11:44:59.936Z,1.00
2024-01-08T11:47:28.052Z,1.00
2024-01-08T11:49:56.009Z,1.00
2024-01-08T11:52:24.273Z,1.00
2024-01-08T11:54:53.787Z,1.00
2024-01-08T11:57:22.067Z,1.00
2024-01-08T11:59:49.964Z,1.00
2024-01-08T12:02:21.206Z,1.00
2024-01-08T12:04:56.867Z,1.00
2024-01-08T12:07:26.138Z,1.00
2024-01-08T12:18:32.688Z,1.00
2024-01-08T12:21:04.203Z,1.00
2024-01-08T12:23:32.089Z,1.00
2024-01-08T12:26:00.396Z,1.00
2024-01-08T12:28:29.512Z,1.00
2024-01-08T12:30:59.978Z,1.00
2024-01-08T12:33:28.008Z,1.00
2024-01-08T12:35:57.643Z,1.00
2024-01-08T12:38:25.720Z,1.00
2024-01-08T12:40:54.501Z,1.00
2024-01-08T12:43:22.580Z,1.00
2024-01-08T12:45:51.350Z,1.00
2024-01-08T12:48:19.861Z,1.00
2024-01-08T12:50:48.960Z,1.00
2024-01-08T12:53:18.358Z,1.00
2024-01-08T12:55:46.264Z,1.00
2024-01-08T12:58:14.113Z,1.00
2024-01-08T13:00:41.986Z,1.00
2024-01-08T13:03:10.098Z,1.00
2024-01-08T13:05:39.668Z,1.00
2024-01-08T13:08:07.850Z,1.00
2024-01-08T13:10:37.071Z,1.00
2024-01-08T13:13:04.954Z,1.00
2024-01-08T13:15:32.825Z,1.00
2024-01-08T13:18:00.870Z,1.00
2024-01-08T13:20:29.979Z,1.00
2024-01-08T13:22:57.894Z,1.00
2024-01-08T13:25:25.911Z,1.00
2024-01-08T13:27:55.215Z,1.00
2024-01-08T13:30:24.154Z,1.00
2024-01-08T13:32:52.584Z,1.00
2024-01-08T13:35:20.622Z,1.00
2024-01-08T13:37:49.218Z,1.00
2024-01-08T13:40:21.035Z,1.00
2024-01-08T13:42:51.227Z,1.00
2024-01-08T13:45:20.552Z,1.00
2024-01-08T13:47:50.532Z,1.00
2024-01-08T13:50:19.481Z,1.00
2024-01-08T13:52:47.414Z,1.00
2024-01-08T13:55:15.636Z,1.00
2024-01-08T13:57:43.443Z,1.00
2024-01-08T14:00:12.093Z,1.00
2024-01-08T14:02:42.928Z,1.00
2024-01-08T14:05:11.790Z,1.00
2024-01-08T14:07:39.745Z,1.00
2024-01-08T14:10:08.345Z,1.00
2024-01-08T14:12:36.192Z,1.00
2024-01-08T14:15:04.099Z,1.00
2024-01-08T14:17:32.185Z,1.00
2024-01-08T14:20:01.560Z,1.00
2024-01-08T14:22:29.485Z,1.00
2024-01-08T14:24:57.391Z,1.00
2024-01-08T14:27:25.443Z,1.00
2024-01-08T14:29:54.308Z,1.00
2024-01-08T14:32:22.326Z,1.00
2024-01-08T14:34:50.347Z,1.00
2024-01-08T14:37:19.636Z,1.00
2024-01-08T14:39:47.511Z,1.00
2024-01-08T14:42:15.545Z,1.00
2024-01-08T14:44:43.513Z,1.00
2024-01-08T14:47:11.469Z,1.00
2024-01-08T14:49:40.105Z,1.00
2024-01-08T14:52:07.956Z,1.00
2024-01-08T14:54:37.149Z,1.00
2024-01-08T14:57:07.555Z,1.00
2024-01-08T14:59:36.747Z,1.00
2024-01-08T15:02:05.998Z,1.00
2024-01-08T15:04:34.044Z,1.00
2024-01-08T15:07:08.661Z,1.00
2024-01-08T15:09:37.935Z,1.00
2024-01-08T15:12:06.903Z,14.80
2024-01-08T15:14:34.865Z,17.40
2024-01-08T15:17:02.756Z,23.70
2024-01-08T15:19:30.669Z,19.00
2024-01-08T15:21:58.663Z,16.20
2024-01-08T15:24:26.596Z,12.80
2024-01-08T15:26:58.647Z,12.90
2024-01-08T15:29:26.597Z,9.60
2024-01-08T15:31:54.397Z,12.60
2024-01-08T15:34:22.360Z,16.60
2024-01-08T15:36:50.361Z,3.90
2024-01-08T15:39:19.479Z,4.40
2024-01-08T15:41:47.359Z,9.50
2024-01-08T15:44:16.714Z,1.80
2024-01-08T15:46:46.144Z,4.80
2024-01-08T15:49:14.450Z,1.00
2024-01-08T15:51:42.548Z,2.80
2024-01-08T15:54:10.489Z,1.00
2024-01-08T15:56:39.810Z,8.90
2024-01-08T15:59:07.840Z,15.00
2024-01-08T16:01:37.314Z,39.70
2024-01-08T16:04:05.540Z,31.70
2024-01-08T16:06:33.527Z,68.60
2024-01-08T16:09:02.231Z,63.30
2024-01-08T16:11:30.217Z,56.20
2024-01-08T16:13:58.051Z,70.20
2024-01-08T16:16:27.505Z,64.30
2024-01-08T16:18:56.857Z,52.30
2024-01-08T16:21:24.769Z,35.40
2024-01-08T16:23:59.334Z,18.10
2024-01-08T16:26:34.831Z,20.90
2024-01-08T16:29:03.113Z,12.10
2024-01-08T16:31:30.960Z,3.90
2024-01-08T16:34:00.487Z,12.20
2024-01-08T16:36:28.806Z,8.80
2024-01-08T16:38:56.658Z,5.40
2024-01-08T16:41:24.617Z,1.00
2024-01-08T16:43:53.096Z,1.00
2024-01-08T16:46:20.980Z,1.00
2024-01-08T16:48:49.024Z,1.00
2024-01-08T16:51:18.355Z,1.00
2024-01-08T16:53:46.383Z,1.00
2024-01-08T16:56:15.049Z,1.00
2024-01-08T16:58:42.851Z,1.00
2024-01-08T17:01:11.164Z,1.00
2024-01-08T17:03:39.066Z,1.00
2024-01-08T17:06:09.796Z,1.00
2024-01-08T17:08:40.310Z,1.00
2024-01-08T17:11:08.257Z,1.00
2024-01-08T17:13:36.179Z,1.00
2024-01-08T17:16:04.320Z,1.00
2024-01-08T17:18:32.353Z,1.00
2024-01-08T17:21:00.283Z,1.00
2024-01-08T17:23:28.448Z,1.00
2024-01-08T17:25:57.834Z,1.00
2024-01-08T17:28:25.725Z,1.00
2024-01-08T17:30:53.838Z,1.00
2024-01-08T17:33:22.138Z,1.00
2024-01-08T17:35:50.583Z,1.00
2024-01-08T17:38:19.114Z,1.00
2024-01-08T17:40:47.521Z,1.00
2024-01-08T17:43:16.751Z,1.00
2024-01-08T17:45:44.806Z,1.00
2024-01-08T17:48:14.168Z,1.00
2024-01-08T17:50:42.211Z,1.00
2024-01-08T17:53:10.140Z,1.00
2024-01-08T17:55:38.001Z,1.00
2024-01-08T17:58:05.998Z,1.00
2024-01-08T18:00:35.319Z,1.00
2024-01-08T18:03:03.341Z,1.00
2024-01-08T18:05:32.108Z,1.00
2024-01-08T18:07:59.971Z,1.00
2024-01-08T18:10:27.875Z,1.00
2024-01-08T18:12:55.701Z,1.00
2024-01-08T18:15:25.149Z,1.00
2024-01-08T18:17:54.494Z,1.00
2024-01-08T18:20:22.428Z,1.00
2024-01-08T18:22:50.414Z,1.00
2024-01-08T18:25:19.637Z,1.00
2024-01-08T18:27:47.505Z,1.00
2024-01-08T18:30:16.209Z,1.00
2024-01-08T18:32:45.852Z,1.00
2024-01-08T18:35:15.235Z,1.00
2024-01-08T18:37:43.533Z,1.00
2024-01-08T18:40:12.427Z,1.00
2024-01-08T18:42:40.231Z,1.00
2024-01-08T18:45:11.533Z,1.00
2024-01-08T18:47:39.528Z,1.00
2024-01-08T18:50:10.041Z,1.00
2024-01-08T18:52:39.441Z,1.00
2024-01-08T18:55:08.752Z,1.00
2024-01-08T18:57:36.586Z,1.00
2024-01-08T19:00:05.716Z,1.00
2024-01-08T19:02:34.007Z,1.00
2024-01-08T19:05:02.110Z,1.00
2024-01-08T19:07:30.197Z,1.00
2024-01-08T19:09:59.389Z,1.00
2024-01-08T19:12:28.013Z,1.00
2024-01-08T19:14:55.955Z,1.00
2024-01-08T19:17:23.979Z,1.00
2024-01-08T19:19:52.323Z,1.00
2024-01-08T19:22:20.178Z,1.00
2024-01-08T19:24:47.987Z,1.00
2024-01-08T19:27:17.249Z,1.00
2024-01-08T19:29:46.496Z,1.00
2024-01-08T19:32:14.547Z,1.00
2024-01-08T19:34:43.020Z,1.00
2024-01-08T19:37:13.281Z,1.00
2024-01-08T19:39:42.376Z,1.00
2024-01-08T19:42:10.281Z,1.00
2024-01-08T19:44:39.713Z,1.00
2024-01-08T19:47:09.457Z,1.00
2024-01-08T19:49:37.421Z,1.00
2024-01-08T19:52:05.751Z,1.00
2024-01-08T19:54:34.223Z,1.00
2024-01-08T19:57:02.311Z,1.00
2024-01-08T19:59:30.663Z,1.00
2024-01-08T20:02:00.437Z,1.00
2024-01-08T20:04:28.393Z,5.50
2024-01-08T20:06:56.362Z,17.60
2024-01-08T20:09:24.469Z,7.30
2024-01-08T20:11:52.410Z,15.30
2024-01-08T20:14:20.328Z,12.50
2024-01-08T20:16:48.212Z,18.70
2024-01-08T20:19:17.652Z,11.10
2024-01-08T20:21:46.960Z,12.80
2024-01-08T20:24:14.824Z,17.90
2024-01-08T20:26:42.823Z,34.70
2024-01-08T20:29:10.750Z,36.10
2024-01-08T20:31:39.350Z,37.20
2024-01-08T20:34:07.473Z,33.80
2024-01-08T20:36:37.023Z,52.10
2024-01-08T20:39:06.041Z,52.30
2024-01-08T20:41:34.152Z,67.60
2024-01-08T20:44:02.231Z,62.40
2024-01-08T20:46:30.129Z,43.60
2024-01-08T20:48:58.213Z,35.50
2024-01-08T20:51:27.060Z,33.80
2024-01-08T20:53:56.337Z,47.40
2024-01-08T20:56:24.266Z,39.60
2024-01-08T20:58:52.095Z,47.30
2024-01-08T21:01:20.145Z,47.40
2024-01-08T21:03:48.114Z,67.60
2024-01-08T21:06:16.133Z,74.30
2024-01-08T21:08:44.139Z,82.50
2024-01-08T21:11:15.688Z,83.50
2024-01-08T21:13:43.727Z,72.50
2024-01-08T21:16:11.599Z,67.10
2024-01-08T21:18:39.605Z,75.50
2024-01-08T21:21:09.886Z,88.70
2024-01-08T21:23:38.146Z,90.80
2024-01-08T21:26:06.487Z,97.20
2024-01-08T21:28:35.804Z,94.60
2024-01-08T21:31:05.039Z,91.20
2024-01-08T21:33:33.192Z,90.40
2024-01-08T21:36:01.204Z,92.20
2024-01-08T21:38:29.269Z,90.10
2024-01-08T21:40:57.192Z,91.30
2024-01-08T21:43:25.247Z,99.10
2024-01-08T21:45:54.472Z,99.90
2024-01-08T21:48:22.424Z,99.90
2024-01-08T21:50:50.415Z,99.90
2024-01-08T21:53:18.524Z,99.90
2024-01-08T21:55:46.417Z,99.90
2024-01-08T21:58:14.511Z,99.90
2024-01-08T22:00:42.429Z,99.90
2024-01-08T22:03:11.712Z,99.90
2024-01-08T22:05:39.791Z,99.90
2024-01-08T22:08:07.855Z,99.90
2024-01-08T22:10:35.768Z,99.90
2024-01-08T22:13:03.892Z,99.90
2024-01-08T22:15:31.738Z,99.90
2024-01-08T22:17:59.643Z,99.90
2024-01-08T22:20:29.124Z,99.90
2024-01-08T22:22:57.002Z,99.90
2024-01-08T22:25:24.853Z,99.90
2024-01-08T22:27:52.649Z,99.90
2024-01-08T22:30:20.609Z,99.90
2024-01-08T22:32:48.667Z,99.90
2024-01-08T22:35:16.773Z,99.90
2024-01-08T22:37:46.110Z,99.90
2024-01-08T22:40:14.461Z,99.90
2024-01-08T22:42:42.397Z,99.90
2024-01-08T22:45:11.150Z,99.90
2024-01-08T22:47:39.126Z,99.90
2024-01-08T22:50:09.231Z,99.90
2024-01-08T22:52:37.127Z,99.90
2024-01-08T22:55:07.160Z,99.90
2024-01-08T22:57:35.085Z,99.90
2024-01-08T23:00:07.123Z,99.90
2024-01-08T23:02:35.148Z,99.90
2024-01-08T23:05:03.434Z,99.90
2024-01-08T23:07:31.379Z,99.90
2024-01-08T23:09:59.538Z,99.90
2024-01-08T23:12:28.763Z,99.90
2024-01-08T23:14:58.425Z,99.90
2024-01-08T23:17:26.539Z,99.90
2024-01-08T23:19:54.473Z,99.90
2024-01-08T23:22:22.354Z,99.90
2024-01-08T23:24:50.169Z,99.90
2024-01-08T23:27:18.404Z,99.90
2024-01-08T23:29:48.782Z,99.90
2024-01-08T23:32:16.707Z,99.90
2024-01-08T23:34:44.688Z,99.90
2024-01-08T23:37:12.718Z,99.90
2024-01-08T23:39:40.555Z,99.90
2024-01-08T23:42:08.658Z,99.90
2024-01-08T23:44:36.568Z,99.90
2024-01-08T23:47:06.435Z,99.90
2024-01-08T23:49:34.323Z,99.90
2024-01-08T23:52:02.208Z,99.90
2024-01-08T23:54:30.047Z,99.90
2024-01-08T23:56:57.975Z,99.90
2024-01-08T23:59:25.840Z,99.90
